Time;durP1;ratioP1;P1;durP2;ratioP2;P2;SDS_P1;SDS_P2;PMS_P1;PMS_P2;Temp;Humidity;BMP_temperature;BMP_pressure;BME280_temperature;BME280_humidity;BME280_pressure;Samples;Min_cycle;Max_cycle;Signal;HPM_P1;HPM_P2
2022/01/20 00:03:16;;;;;;;6.88;0.98;;;5.10;99.90;;;;;;5053857;28;20037;-84
2022/01/20 00:06:33;;;;;;;4.88;1.73;;;5.10;99.90;;;;;;5052627;28;20033;-84
2022/01/20 00:27:38;;;;;;;9.38;1.38;;;4.80;99.90;;;;;;5053573;28;20109;-83
2022/01/20 00:32:59;;;;;;;6.85;0.52;;;5.20;1.00;;;;;;5053394;28;20061;-84
2022/01/20 00:37:13;;;;;;;2.83;0.85;;;4.80;1.00;;;;;;5052103;28;20036;-84
2022/01/20 00:38:13;;;;;;;7.85;1.00;;;4.70;1.00;;;;;;5053278;28;20104;-84
2022/01/20 00:40:39;;;;;;;5.53;0.73;;;4.70;93.80;;;;;;5052263;28;20044;-84
2022/01/20 00:43:04;;;;;;;4.72;0.40;;;4.80;1.00;;;;;;5052074;28;20029;-84
2022/01/20 00:45:30;;;;;;;4.95;0.55;;;4.80;1.00;;;;;;5051856;28;20033;-84
2022/01/20 00:47:55;;;;;;;5.35;0.82;;;4.70;1.00;;;;;;5051739;28;20032;-84
2022/01/20 00:50:21;;;;;;;4.68;0.70;;;4.50;1.60;;;;;;5052090;28;20013;-84
2022/01/20 00:52:47;;;;;;;3.85;0.88;;;4.40;99.90;;;;;;5055394;28;20025;-84
2022/01/20 00:55:12;;;;;;;7.72;0.85;;;4.30;77.80;;;;;;5055778;28;20029;-84
2022/01/20 00:57:38;;;;;;;2.60;0.63;;;4.40;1.00;;;;;;5055723;28;20025;-84
2022/01/20 01:00:09;;;;;;;4.05;0.70;;;4.40;6.90;;;;;;5056031;28;20051;-84
2022/01/20 01:02:35;;;;;;;3.35;0.38;;;4.30;1.00;;;;;;5055909;28;20496;-84
2022/01/20 01:05:02;;;;;;;6.35;1.27;;;4.30;1.00;;;;;;5055904;28;20032;-83
2022/01/20 01:07:48;;;;;;;9.70;1.05;;;4.30;1.00;;;;;;5055567;28;20163;-84
2022/01/20 01:10:20;;;;;;;10.57;1.00;;;4.30;1.00;;;;;;5055818;28;20032;-83
2022/01/20 01:12:57;;;;;;;9.45;0.75;;;4.20;85.60;;;;;;5056038;28;20393;-84
2022/01/20 01:15:29;;;;;;;9.52;1.60;;;4.20;99.90;;;;;;5056991;28;20056;-83
2022/01/20 01:21:11;;;;;;;5.25;1.17;;;4.30;89.50;;;;;;5056872;28;20098;-84
2022/01/20 01:23:36;;;;;;;12.60;1.50;;;4.30;19.90;;;;;;5056443;28;20086;-84
2022/01/20 01:26:02;;;;;;;;;;;4.50;1.00;;;;;;5056898;28;20418;-83
2022/01/20 01:28:30;;;;;;;10.23;1.38;;;4.60;1.00;;;;;;5056547;28;20280;-84
2022/01/20 01:33:26;;;;;;;1.45;0.30;;;5.00;99.90;;;;;;5056542;28;20040;-84
2022/01/20 01:35:57;;;;;;;6.40;0.88;;;4.80;99.90;;;;;;5055104;28;20091;-83
2022/01/20 01:38:42;;;;;;;3.03;0.52;;;4.70;99.90;;;;;;5034962;28;20057;-83
2022/01/20 01:41:14;;;;;;;4.65;0.73;;;4.70;99.90;;;;;;5055126;28;20033;-84
2022/01/20 01:47:02;;;;;;;3.15;0.77;;;4.70;99.90;;;;;;5056162;28;20476;-83
2022/01/20 01:49:28;;;;;;;3.22;0.70;;;4.80;99.90;;;;;;5054995;28;20029;-83
2022/01/20 01:51:53;;;;;;;4.10;0.25;;;4.70;99.90;;;;;;5055032;28;20021;-83
2022/01/20 01:54:19;;;;;;;3.03;0.52;;;4.60;99.90;;;;;;5054752;28;20025;-83
2022/01/20 01:56:47;;;;;;;4.63;0.77;;;4.50;99.90;;;;;;5055018;28;20484;-83
2022/01/20 01:59:12;;;;;;;3.70;0.80;;;4.60;99.90;;;;;;5054845;28;20475;-83
2022/01/20 02:01:40;;;;;;;6.55;1.40;;;4.60;99.90;;;;;;5054816;28;20025;-83
2022/01/20 02:04:15;;;;;;;10.93;1.38;;;4.80;99.90;;;;;;5053069;28;20396;-84
2022/01/20 02:19:56;;;;;;;12.52;1.70;;;4.60;99.90;;;;;;5055794;28;20078;-83
2022/01/20 02:22:22;;;;;;;13.85;1.98;;;4.60;99.90;;;;;;5054050;28;20401;-84
2022/01/20 02:24:47;;;;;;;7.88;1.70;;;4.70;99.90;;;;;;5054322;28;20063;-84
2022/01/20 02:27:13;;;;;;;6.45;1.45;;;4.60;99.90;;;;;;5054356;28;20707;-84
2022/01/20 02:29:40;;;;;;;11.50;2.22;;;4.50;99.90;;;;;;5054380;28;20112;-84
2022/01/20 02:32:06;;;;;;;16.80;3.15;;;4.30;99.90;;;;;;5054106;28;20033;-84
2022/01/20 02:34:32;;;;;;;14.40;2.30;;;4.30;99.90;;;;;;5054280;28;20085;-84
2022/01/20 02:37:01;;;;;;;7.10;1.73;;;4.50;99.90;;;;;;5054187;28;20472;-84
2022/01/20 02:44:51;;;;;;;12.52;3.00;;;4.50;99.90;;;;;;5041792;28;20045;-84
2022/01/20 02:47:36;;;;;;;16.83;3.45;;;4.70;99.90;;;;;;5034174;28;20100;-84
2022/01/20 02:50:03;;;;;;;19.67;2.85;;;4.80;1.00;;;;;;5034069;28;20488;-83
2022/01/20 02:52:28;;;;;;;20.73;3.97;;;4.80;1.00;;;;;;5033726;28;20034;-83
2022/01/20 02:54:55;;;;;;;19.25;3.95;;;4.80;1.00;;;;;;5033889;28;20021;-83
2022/01/20 02:57:21;;;;;;;16.58;3.67;;;4.70;1.00;;;;;;5033808;28;20033;-83
2022/01/20 02:59:47;;;;;;;13.10;3.33;;;4.50;1.00;;;;;;5033923;28;20064;-83
2022/01/20 03:02:13;;;;;;;10.00;2.00;;;4.40;1.00;;;;;;5033816;28;20052;-83
2022/01/20 03:04:39;;;;;;;11.77;2.40;;;4.30;1.00;;;;;;5033399;28;20383;-83
2022/01/20 03:07:05;;;;;;;19.70;3.28;;;4.30;1.00;;;;;;5033492;28;20033;-83
2022/01/20 03:09:32;;;;;;;11.90;2.78;;;4.30;1.00;;;;;;5033386;28;20025;-83
2022/01/20 03:11:58;;;;;;;17.17;3.40;;;4.10;1.00;;;;;;5034504;28;20026;-83
2022/01/20 03:14:23;;;;;;;8.88;1.67;;;4.00;1.00;;;;;;5034619;28;20409;-83
2022/01/20 03:16:50;;;;;;;10.80;1.88;;;4.20;1.00;;;;;;5033397;28;20025;-83
2022/01/20 03:19:16;;;;;;;13.68;2.97;;;4.30;1.00;;;;;;5034447;28;20029;-83
2022/01/20 03:21:43;;;;;;;13.50;2.50;;;4.30;1.00;;;;;;5033652;28;20429;-83
2022/01/20 03:24:10;;;;;;;6.15;1.65;;;4.50;1.00;;;;;;5033427;28;20026;-83
2022/01/20 03:26:37;;;;;;;12.25;2.53;;;4.50;1.00;;;;;;5033296;28;20049;-83
2022/01/20 03:29:04;;;;;;;13.93;2.95;;;4.50;1.00;;;;;;5034527;28;20837;-83
2022/01/20 03:31:31;;;;;;;13.02;3.42;;;4.60;1.00;;;;;;5033201;28;20018;-82
2022/01/20 03:34:00;;;;;;;18.30;2.80;;;4.70;1.00;;;;;;5033012;28;20072;-83
2022/01/20 03:36:26;;;;;;;13.57;1.65;;;4.70;1.00;;;;;;5033318;28;20028;-83
2022/01/20 03:38:52;;;;;;;11.55;2.10;;;4.70;1.00;;;;;;5033127;28;20025;-83
2022/01/20 03:41:19;;;;;;;12.75;2.13;;;4.70;99.90;;;;;;5033127;28;20029;-83
2022/01/20 03:43:45;;;;;;;13.18;2.88;;;4.60;1.00;;;;;;5032959;28;20056;-83
2022/01/20 03:46:14;;;;;;;17.58;3.40;;;4.60;1.00;;;;;;5032904;28;20040;-83
2022/01/20 03:48:53;;;;;;;14.63;2.38;;;4.70;99.90;;;;;;5032519;28;20036;-83
2022/01/20 03:51:23;;;;;;;17.67;3.55;;;4.80;1.00;;;;;;5033031;28;20200;-82
2022/01/20 03:53:55;;;;;;;13.38;2.30;;;4.70;1.00;;;;;;5032753;28;20025;-83
2022/01/20 03:56:21;;;;;;;10.95;2.22;;;4.70;1.00;;;;;;5032962;28;20122;-83
2022/01/20 03:58:47;;;;;;;15.40;2.92;;;4.60;1.00;;;;;;5032780;28;20180;-83
2022/01/20 04:01:17;;;;;;;11.20;2.33;;;4.50;1.00;;;;;;5032877;28;20449;-83
2022/01/20 04:03:43;;;;;;;9.82;2.60;;;4.50;1.00;;;;;;5032588;28;20030;-83
2022/01/20 04:06:09;;;;;;;15.95;2.45;;;4.50;1.00;;;;;;5033623;28;20029;-83
2022/01/20 04:08:38;;;;;;;11.38;2.38;;;4.50;99.90;;;;;;5032979;28;20021;-83
2022/01/20 04:11:11;;;;;;;7.38;2.05;;;4.40;1.00;;;;;;5032585;28;20021;-83
2022/01/20 04:13:37;;;;;;;7.05;1.23;;;4.50;99.90;;;;;;5033850;28;20053;-84
2022/01/20 04:16:15;;;;;;;10.13;2.13;;;4.40;1.00;;;;;;5032377;28;20516;-83
2022/01/20 04:18:52;;;;;;;4.70;1.33;;;4.20;1.00;;;;;;5033905;28;20088;-82
2022/01/20 04:21:24;;;;;;;10.75;1.63;;;4.00;1.00;;;;;;5032588;28;20397;-83
2022/01/20 04:30:33;;;;;;;9.80;1.58;;;4.20;1.00;;;;;;5033635;28;20041;-83
2022/01/20 04:32:59;;;;;;;17.40;3.00;;;4.10;1.00;;;;;;5032202;28;20030;-83
2022/01/20 04:35:25;;;;;;;12.40;2.67;;;4.10;1.00;;;;;;5032145;28;20076;-83
2022/01/20 04:37:53;;;;;;;8.52;2.10;;;4.00;1.00;;;;;;5032284;28;20025;-83
2022/01/20 04:40:20;;;;;;;7.93;1.70;;;3.90;1.00;;;;;;5032312;28;20055;-83
2022/01/20 04:42:48;;;;;;;1.17;0.35;;;3.70;1.00;;;;;;5032819;28;20083;-83
2022/01/20 04:45:19;;;;;;;14.57;2.03;;;3.60;1.00;;;;;;5032707;28;20017;-83
2022/01/20 04:47:54;;;;;;;6.07;1.70;;;3.50;1.00;;;;;;5032146;28;20041;-83
2022/01/20 04:58:31;;;;;;;9.50;1.77;;;3.20;1.00;;;;;;5033396;28;20035;-84
2022/01/20 05:00:57;;;;;;;8.65;1.63;;;3.30;1.00;;;;;;5031627;28;20025;-83
2022/01/20 05:03:24;;;;;;;7.72;1.67;;;3.30;1.00;;;;;;5032267;28;20030;-83
2022/01/20 05:05:50;;;;;;;11.65;1.40;;;3.50;1.00;;;;;;5031947;28;20021;-83
2022/01/20 05:08:21;;;;;;;11.52;2.33;;;3.70;1.00;;;;;;5031963;28;20022;-82
2022/01/20 05:10:47;;;;;;;11.00;2.20;;;3.90;1.00;;;;;;5033214;28;20017;-83
2022/01/20 05:13:22;;;;;;;19.23;3.20;;;4.00;1.00;;;;;;5031777;28;20049;-83
2022/01/20 05:15:48;;;;;;;15.90;2.90;;;3.90;1.00;;;;;;5032063;28;20469;-83
2022/01/20 05:18:14;;;;;;;9.43;2.20;;;3.80;1.00;;;;;;5033197;28;20029;-83
2022/01/20 05:20:40;;;;;;;16.27;2.40;;;3.70;1.00;;;;;;5032117;28;20026;-81
2022/01/20 05:23:05;;;;;;;12.52;2.50;;;3.70;1.00;;;;;;5036202;28;20056;-81
2022/01/20 05:29:16;;;;;;;9.05;1.38;;;3.60;1.00;;;;;;5052610;28;20388;-81
2022/01/20 05:35:17;;;;;;;4.82;1.27;;;3.30;1.00;;;;;;5041858;28;20040;-80
2022/01/20 05:37:43;;;;;;;8.52;1.70;;;3.10;1.00;;;;;;5039287;28;20026;-81
2022/01/20 05:40:09;;;;;;;6.35;1.20;;;3.00;1.00;;;;;;5033605;28;20401;-81
2022/01/20 05:42:36;;;;;;;5.72;1.20;;;2.90;1.00;;;;;;5034367;28;20064;-82
2022/01/20 05:45:03;;;;;;;5.90;1.35;;;2.90;1.00;;;;;;5032495;28;20030;-80
2022/01/20 05:47:31;;;;;;;9.00;1.80;;;3.10;1.00;;;;;;5035974;28;20022;-81
2022/01/20 05:49:56;;;;;;;8.60;1.65;;;3.30;1.00;;;;;;5037056;28;20013;-81
2022/01/20 05:52:22;;;;;;;4.38;1.23;;;2.80;99.90;;;;;;5032370;28;20045;-81
2022/01/20 05:54:48;;;;;;;8.77;2.15;;;2.30;99.90;;;;;;5034655;28;20426;-81
2022/01/20 05:57:14;;;;;;;8.93;1.48;;;2.20;99.90;;;;;;5039988;28;20583;-80
2022/01/20 05:59:39;;;;;;;10.75;1.63;;;2.20;35.20;;;;;;5033063;28;20100;-81
2022/01/20 06:02:24;;;;;;;5.13;1.33;;;2.10;1.00;;;;;;5031901;28;20017;-80
2022/01/20 06:04:49;;;;;;;8.30;1.48;;;2.10;1.00;;;;;;5038742;28;20385;-81
2022/01/20 06:07:15;;;;;;;5.40;0.70;;;2.20;99.90;;;;;;5036128;28;20527;-80
2022/01/20 06:09:40;;;;;;;4.82;1.23;;;2.30;99.90;;;;;;5034951;28;20530;-80
2022/01/20 06:12:07;;;;;;;3.47;0.90;;;2.30;99.90;;;;;;5033881;28;20229;-81
2022/01/20 06:14:32;;;;;;;4.35;1.13;;;2.20;99.90;;;;;;5031232;28;20049;-81
2022/01/20 06:16:58;;;;;;;8.73;0.95;;;2.10;99.90;;;;;;5051265;28;20025;-80
2022/01/20 06:19:24;;;;;;;7.07;1.75;;;2.10;99.90;;;;;;5052069;28;20075;-81
2022/01/20 06:21:50;;;;;;;5.28;1.25;;;1.90;99.90;;;;;;5053047;28;20404;-81
2022/01/20 06:24:16;;;;;;;5.30;0.75;;;1.80;99.90;;;;;;5051725;28;20024;-80
2022/01/20 06:26:41;;;;;;;6.32;0.85;;;1.80;99.90;;;;;;5053032;28;20108;-81
2022/01/20 06:29:07;;;;;;;9.93;1.20;;;2.20;99.90;;;;;;5051373;28;20021;-80
2022/01/20 06:31:32;;;;;;;15.30;3.40;;;2.60;99.90;;;;;;5045365;28;20439;-80
2022/01/20 06:33:58;;;;;;;15.27;2.22;;;2.80;99.90;;;;;;5045133;28;20468;-81
2022/01/20 06:36:24;;;;;;;10.93;2.28;;;2.90;99.90;;;;;;5051509;28;20048;-80
2022/01/20 06:38:49;;;;;;;4.22;0.70;;;2.60;99.90;;;;;;5051601;28;20112;-80
2022/01/20 06:41:15;;;;;;;10.90;1.33;;;2.40;99.90;;;;;;5052650;28;20021;-81
2022/01/20 06:43:40;;;;;;;5.00;0.93;;;2.40;99.90;;;;;;5051432;28;20052;-80
2022/01/20 06:46:06;;;;;;;11.13;1.92;;;2.40;99.90;;;;;;5052490;28;20112;-80
2022/01/20 06:48:32;;;;;;;12.23;2.50;;;2.60;99.90;;;;;;5051108;28;20102;-80
2022/01/20 06:50:57;;;;;;;7.32;1.40;;;2.60;99.90;;;;;;5051010;28;20143;-80
2022/01/20 06:53:23;;;;;;;11.20;1.65;;;2.70;99.90;;;;;;5052377;28;20108;-80
2022/01/20 06:55:48;;;;;;;9.48;1.80;;;2.60;95.50;;;;;;5052061;28;20025;-82
2022/01/20 06:58:14;;;;;;;12.32;1.85;;;2.70;29.40;;;;;;5051223;28;20145;-83
2022/01/20 07:00:40;;;;;;;8.23;1.52;;;2.70;27.30;;;;;;5052653;28;20027;-83
2022/01/20 07:03:05;;;;;;;9.60;1.65;;;2.60;45.30;;;;;;5052415;28;20057;-83
2022/01/20 07:05:31;;;;;;;8.40;1.63;;;2.50;52.10;;;;;;5045941;28;20021;-83
2022/01/20 07:07:56;;;;;;;11.02;2.15;;;2.50;39.90;;;;;;5039998;28;20013;-83
2022/01/20 07:10:22;;;;;;;14.75;2.97;;;2.60;18.80;;;;;;5050812;28;20025;-82
2022/01/20 07:12:49;;;;;;;8.63;2.00;;;2.70;7.70;;;;;;5035224;28;20056;-83
2022/01/20 07:15:16;;;;;;;12.50;2.40;;;2.80;1.00;;;;;;5030539;28;20025;-83
2022/01/20 07:17:42;;;;;;;12.05;2.17;;;2.90;1.00;;;;;;5032050;28;20308;-82
2022/01/20 07:20:08;;;;;;;15.20;2.35;;;3.00;1.00;;;;;;5030792;28;20036;-83
2022/01/20 07:22:35;;;;;;;11.73;2.20;;;3.10;1.00;;;;;;5030714;28;20080;-83
2022/01/20 07:25:01;;;;;;;11.88;2.17;;;3.20;1.00;;;;;;5030560;28;20029;-82
2022/01/20 07:27:28;;;;;;;18.48;2.85;;;3.20;1.00;;;;;;5030677;28;20026;-83
2022/01/20 07:29:53;;;;;;;10.75;2.38;;;3.20;1.00;;;;;;5032885;28;20028;-83
2022/01/20 07:32:19;;;;;;;5.85;1.65;;;3.10;1.00;;;;;;5049181;28;20027;-82
2022/01/20 07:34:44;;;;;;;8.20;1.10;;;3.10;1.00;;;;;;5050298;28;20366;-83
2022/01/20 07:37:10;;;;;;;7.05;1.40;;;3.10;1.00;;;;;;5049980;28;20089;-83
2022/01/20 07:39:36;;;;;;;7.95;1.48;;;3.00;1.00;;;;;;5050066;28;20119;-82
2022/01/20 07:42:02;;;;;;;11.25;1.20;;;3.00;1.00;;;;;;5050171;28;20025;-82
2022/01/20 07:44:27;;;;;;;12.13;1.55;;;2.90;1.00;;;;;;5051442;28;20500;-83
2022/01/20 07:46:53;;;;;;;11.65;2.78;;;3.00;1.00;;;;;;5049976;28;20033;-83
2022/01/20 07:49:19;;;;;;;8.57;1.73;;;3.10;1.00;;;;;;5050114;28;20432;-83
2022/01/20 07:51:45;;;;;;;10.50;2.10;;;3.30;1.00;;;;;;5049605;28;20029;-83
2022/01/20 07:54:11;;;;;;;12.82;2.10;;;3.40;1.00;;;;;;5032573;28;20033;-82
2022/01/20 07:56:36;;;;;;;11.32;2.50;;;3.50;1.00;;;;;;5045363;28;20094;-83
2022/01/20 07:59:03;;;;;;;11.95;2.10;;;3.50;1.00;;;;;;5042852;28;20025;-82
2022/01/20 08:01:28;;;;;;;19.10;3.22;;;3.60;1.00;;;;;;5032534;28;20378;-83
2022/01/20 08:03:54;;;;;;;12.23;2.28;;;3.50;1.00;;;;;;5031441;28;20482;-83
2022/01/20 08:06:22;;;;;;;3.97;1.05;;;3.50;1.00;;;;;;5029891;28;20559;-83
2022/01/20 08:08:50;;;;;;;15.77;2.83;;;3.50;1.00;;;;;;5045714;28;20025;-83
2022/01/20 08:11:16;;;;;;;14.43;2.80;;;3.60;1.00;;;;;;5049448;28;20021;-83
2022/01/20 08:13:42;;;;;;;8.10;1.48;;;3.50;1.00;;;;;;5049863;28;20575;-83
2022/01/20 08:16:07;;;;;;;9.85;2.53;;;3.50;1.00;;;;;;5050825;28;20114;-83
2022/01/20 08:18:33;;;;;;;16.33;3.15;;;3.40;1.00;;;;;;5036962;28;20051;-83
2022/01/20 08:20:59;;;;;;;11.65;2.38;;;3.40;1.00;;;;;;5032486;28;20021;-83
2022/01/20 08:23:24;;;;;;;16.85;2.72;;;3.30;1.00;;;;;;5036861;28;20052;-83
2022/01/20 08:25:50;;;;;;;11.40;1.83;;;3.40;1.00;;;;;;5035748;28;20087;-83
2022/01/20 08:28:17;;;;;;;10.55;0.93;;;3.40;1.00;;;;;;5030530;28;20500;-83
2022/01/20 08:30:43;;;;;;;9.25;1.52;;;3.60;1.00;;;;;;5029946;28;20300;-83
2022/01/20 08:33:09;;;;;;;9.70;2.10;;;3.50;1.00;;;;;;5035131;28;20525;-83
2022/01/20 08:35:34;;;;;;;9.13;2.08;;;3.40;1.00;;;;;;5036500;28;20385;-83
2022/01/20 08:38:03;;;;;;;8.88;2.15;;;3.50;1.00;;;;;;5029437;28;20022;-83
2022/01/20 08:40:29;;;;;;;5.38;1.70;;;3.50;1.00;;;;;;5034212;28;20021;-83
2022/01/20 08:42:56;;;;;;;7.03;0.75;;;4.00;1.00;;;;;;5050656;28;20022;-82
2022/01/20 08:45:25;;;;;;;7.30;1.15;;;5.10;1.00;;;;;;5049506;28;20032;-83
2022/01/20 08:47:54;;;;;;;9.90;1.80;;;6.10;1.00;;;;;;5049137;28;20495;-83
2022/01/20 08:50:20;;;;;;;5.03;1.13;;;7.20;99.90;;;;;;5049378;28;20029;-83
2022/01/20 08:52:47;;;;;;;6.20;1.00;;;6.70;99.90;;;;;;5050437;28;20032;-83
2022/01/20 08:55:14;;;;;;;5.70;1.10;;;7.10;99.90;;;;;;5050477;28;20032;-83
2022/01/20 08:57:40;;;;;;;8.27;1.98;;;7.00;99.90;;;;;;5049073;28;20021;-83
2022/01/20 09:00:06;;;;;;;7.78;1.98;;;6.60;99.90;;;;;;5049594;28;20425;-83
2022/01/20 09:02:32;;;;;;;10.05;1.38;;;5.50;99.90;;;;;;5034067;28;20026;-83
2022/01/20 09:04:59;;;;;;;8.15;0.90;;;5.20;99.90;;;;;;5028881;28;20021;-83
2022/01/20 09:07:25;;;;;;;9.93;1.27;;;5.00;1.00;;;;;;5030661;28;20100;-83
2022/01/20 09:09:51;;;;;;;7.03;2.10;;;4.70;1.00;;;;;;5030134;28;20450;-82
2022/01/20 09:17:50;;;;;;;8.23;1.40;;;4.50;1.00;;;;;;5034752;28;20045;-83
2022/01/20 09:20:16;;;;;;;10.30;2.00;;;4.50;1.00;;;;;;5048680;28;20029;-83
2022/01/20 09:22:41;;;;;;;9.63;2.47;;;4.50;1.00;;;;;;5032870;28;20029;-83
2022/01/20 09:25:08;;;;;;;9.07;1.75;;;4.40;1.00;;;;;;5033176;28;20071;-83
2022/01/20 09:27:34;;;;;;;10.70;2.42;;;4.30;1.00;;;;;;5037586;28;20112;-83
2022/01/20 09:30:01;;;;;;;10.50;2.13;;;4.20;1.00;;;;;;5052790;28;20163;-83
2022/01/20 09:36:42;;;;;;;12.30;2.85;;;4.80;1.00;;;;;;5036819;28;20017;-82
2022/01/20 09:39:08;;;;;;;13.45;2.05;;;4.60;1.00;;;;;;5035426;28;20400;-82
2022/01/20 09:41:33;;;;;;;15.30;2.35;;;4.60;1.00;;;;;;5035022;28;20025;-83
2022/01/20 09:43:59;;;;;;;5.90;1.73;;;4.50;1.00;;;;;;5034113;28;20040;-83
2022/01/20 09:46:25;;;;;;;4.95;0.90;;;4.40;1.00;;;;;;5032723;28;20112;-83
2022/01/20 09:48:51;;;;;;;7.40;1.83;;;4.20;1.00;;;;;;5032372;28;20159;-83
2022/01/20 09:51:16;;;;;;;9.15;1.70;;;4.10;1.00;;;;;;5047200;28;20021;-82
2022/01/20 09:53:43;;;;;;;6.68;1.08;;;4.30;1.00;;;;;;5051837;28;20440;-83
2022/01/20 09:56:12;;;;;;;7.18;1.33;;;4.50;1.00;;;;;;5053007;28;20171;-83
2022/01/20 09:58:38;;;;;;;2.70;0.90;;;4.50;1.00;;;;;;5052194;28;20043;-83
2022/01/20 10:01:03;;;;;;;3.17;0.65;;;4.10;1.00;;;;;;5053263;28;20029;-82
2022/01/20 10:03:29;;;;;;;9.48;1.27;;;4.00;1.00;;;;;;5056129;28;20021;-83
2022/01/20 10:05:56;;;;;;;7.40;1.30;;;3.80;1.00;;;;;;5055899;28;20100;-83
2022/01/20 10:08:26;;;;;;;8.85;1.70;;;3.70;1.00;;;;;;5050595;28;20079;-83
2022/01/20 10:10:58;;;;;;;3.88;0.98;;;3.60;1.00;;;;;;5051974;28;20435;-83
2022/01/20 10:13:27;;;;;;;6.40;1.38;;;3.60;1.00;;;;;;5050120;28;20049;-83
2022/01/20 10:16:02;;;;;;;8.90;1.85;;;3.70;1.00;;;;;;5053291;28;20036;-83
2022/01/20 10:18:29;;;;;;;12.13;2.03;;;3.90;1.00;;;;;;5051557;28;20025;-83
2022/01/20 10:21:00;;;;;;;4.68;1.55;;;4.00;1.00;;;;;;5053094;28;20100;-83
2022/01/20 10:23:35;;;;;;;12.13;2.22;;;4.40;1.00;;;;;;5051130;28;20029;-83
2022/01/20 10:26:30;;;;;;;12.05;2.50;;;5.20;1.00;;;;;;5051455;28;20032;-83
2022/01/20 10:28:57;;;;;;;16.88;2.63;;;4.90;1.00;;;;;;5042744;28;20063;-83
2022/01/20 10:31:42;;;;;;;11.88;2.17;;;4.80;1.00;;;;;;5052092;28;20492;-83
2022/01/20 10:34:18;;;;;;;7.50;1.55;;;4.80;1.00;;;;;;5051245;28;20025;-83
2022/01/20 10:36:51;;;;;;;5.60;1.38;;;4.80;1.00;;;;;;5053000;28;20052;-82
2022/01/20 10:39:17;;;;;;;4.93;0.52;;;4.60;1.00;;;;;;5051708;28;20025;-83
2022/01/20 10:41:42;;;;;;;6.93;1.33;;;4.50;1.00;;;;;;5051442;28;20033;-83
2022/01/20 10:44:11;;;;;;;3.65;1.67;;;4.50;1.00;;;;;;5050784;28;20571;-83
2022/01/20 10:46:48;;;;;;;7.75;1.05;;;4.60;1.00;;;;;;5051498;28;20021;-83
2022/01/20 10:49:14;;;;;;;11.52;1.65;;;4.80;1.00;;;;;;5051309;28;20437;-83
2022/01/20 10:51:40;;;;;;;15.55;2.70;;;4.90;1.00;;;;;;5051329;28;20120;-83
2022/01/20 10:54:15;;;;;;;4.13;0.70;;;5.20;1.00;;;;;;5050670;28;20025;-83
2022/01/20 10:56:57;;;;;;;17.15;2.67;;;5.30;1.00;;;;;;5051426;28;20404;-83
2022/01/20 10:59:24;;;;;;;10.50;2.00;;;5.20;1.00;;;;;;5051073;28;20512;-83
2022/01/20 11:02:06;;;;;;;2.58;0.75;;;5.20;1.00;;;;;;5051136;28;20025;-82
2022/01/20 11:04:33;;;;;;;4.45;1.23;;;4.90;1.00;;;;;;5051793;28;20170;-83
2022/01/20 11:07:03;;;;;;;3.15;0.88;;;4.80;1.00;;;;;;5065349;28;20053;-83
2022/01/20 11:09:31;;;;;;;5.88;1.27;;;4.70;1.00;;;;;;5033872;28;20369;-83
2022/01/20 11:11:58;;;;;;;11.50;2.63;;;5.10;1.00;;;;;;5033480;28;20017;-83
2022/01/20 11:14:23;;;;;;;8.55;1.60;;;4.90;1.00;;;;;;5035176;28;20485;-83
2022/01/20 11:16:49;;;;;;;6.18;1.05;;;4.10;1.00;;;;;;5034654;28;20022;-83
2022/01/20 11:19:19;;;;;;;7.90;1.27;;;3.80;1.00;;;;;;5034689;28;20101;-84
2022/01/20 11:21:45;;;;;;;3.42;1.08;;;3.70;1.00;;;;;;5030475;28;20043;-84
2022/01/20 11:24:24;;;;;;;6.43;0.80;;;3.80;1.00;;;;;;5030457;28;20033;-84
2022/01/20 11:26:57;;;;;;;5.10;0.97;;;3.80;1.00;;;;;;5045149;28;20029;-83
2022/01/20 11:29:39;;;;;;;5.50;1.10;;;3.80;1.00;;;;;;5049646;28;20288;-83
2022/01/20 11:32:16;;;;;;;4.18;0.85;;;3.80;1.00;;;;;;5051904;28;20068;-83
2022/01/20 11:35:03;;;;;;;5.30;1.45;;;3.80;1.00;;;;;;5035715;28;20425;-83
2022/01/20 11:37:35;;;;;;;6.72;1.38;;;3.80;1.00;;;;;;5045100;28;20031;-84
2022/01/20 11:40:22;;;;;;;9.98;1.25;;;3.80;1.00;;;;;;5045085;28;20048;-82
2022/01/20 11:43:04;;;;;;;6.18;1.45;;;4.00;1.00;;;;;;5042356;28;20052;-83
2022/01/20 11:45:37;;;;;;;11.15;2.35;;;4.20;1.00;;;;;;5073257;28;20025;-83
2022/01/20 11:48:19;;;;;;;7.75;1.50;;;4.80;1.00;;;;;;5044504;28;20032;-83
2022/01/20 11:50:47;;;;;;;3.33;0.43;;;4.10;99.90;;;;;;5044175;28;20037;-82
2022/01/20 11:53:20;;;;;;;4.43;1.10;;;3.50;12.20;;;;;;5043855;28;20039;-83
2022/01/20 11:55:52;;;;;;;5.75;1.17;;;3.50;1.00;;;;;;5042380;28;21283;-82
2022/01/20 11:58:24;;;;;;;5.95;1.38;;;3.60;1.00;;;;;;5043146;28;20045;-83
2022/01/20 12:00:56;;;;;;;5.88;1.50;;;3.70;1.00;;;;;;5043462;28;20017;-82
2022/01/20 12:03:22;;;;;;;3.72;0.70;;;3.70;1.00;;;;;;5045948;28;20506;-82
2022/01/20 12:06:00;;;;;;;1.23;0.50;;;3.80;1.00;;;;;;5040893;28;20528;-83
2022/01/20 12:08:26;;;;;;;9.52;1.83;;;3.90;1.00;;;;;;5046656;28;20052;-83
2022/01/20 12:11:09;;;;;;;6.05;1.58;;;4.00;1.00;;;;;;5043418;28;20450;-82
2022/01/20 12:13:51;;;;;;;11.63;2.05;;;4.10;1.00;;;;;;5041610;28;20045;-83
2022/01/20 12:16:22;;;;;;;8.48;1.55;;;4.30;1.00;;;;;;5039483;28;20021;-82
2022/01/20 12:18:49;;;;;;;;;;;4.50;1.00;;;;;;5053187;28;20057;-83
2022/01/20 12:21:14;;;;;;;11.57;2.13;;;4.60;1.00;;;;;;5040880;28;20430;-83
2022/01/20 12:23:45;;;;;;;14.77;2.20;;;5.20;1.00;;;;;;5043170;28;20034;-83
2022/01/20 12:26:11;;;;;;;16.98;2.55;;;5.10;1.00;;;;;;5048870;28;20366;-83
2022/01/20 12:28:37;;;;;;;15.20;3.00;;;4.80;1.00;;;;;;5049357;28;20491;-82
2022/01/20 12:31:05;;;;;;;10.43;2.30;;;4.60;1.00;;;;;;5037939;28;20039;-83
2022/01/20 12:33:33;;;;;;;6.22;1.80;;;4.40;1.00;;;;;;5035926;28;20489;-83
2022/01/20 12:36:04;;;;;;;7.82;1.20;;;4.20;1.00;;;;;;5029289;28;20029;-83
2022/01/20 12:38:32;;;;;;;5.20;1.00;;;4.10;1.00;;;;;;5029906;28;20087;-82
2022/01/20 12:41:06;;;;;;;7.68;1.33;;;4.00;1.00;;;;;;5060500;28;20370;-83
2022/01/20 12:43:38;;;;;;;6.20;0.70;;;4.00;1.00;;;;;;5049524;28;20029;-83
2022/01/20 12:46:05;;;;;;;4.78;1.42;;;4.00;1.00;;;;;;5067181;28;20446;-83
2022/01/20 12:48:30;;;;;;;12.23;1.80;;;4.00;1.00;;;;;;5054290;28;20067;-83
2022/01/20 12:51:04;;;;;;;4.57;0.90;;;4.20;1.00;;;;;;5035742;28;20029;-83
2022/01/20 12:53:42;;;;;;;10.57;1.90;;;4.30;1.00;;;;;;5053461;28;20082;-83
2022/01/20 12:56:10;;;;;;;12.65;2.75;;;4.80;1.00;;;;;;5053150;28;20113;-83
2022/01/20 12:58:51;;;;;;;14.32;2.28;;;5.30;1.00;;;;;;5054636;28;20064;-82
2022/01/20 13:01:18;;;;;;;8.90;2.22;;;4.80;1.00;;;;;;5057851;28;20029;-83
2022/01/20 13:03:44;;;;;;;8.60;1.45;;;4.30;1.00;;;;;;5070251;28;20033;-83
2022/01/20 13:06:20;;;;;;;1.27;0.35;;;4.00;1.00;;;;;;5073142;28;20036;-83
2022/01/20 13:09:05;;;;;;;3.40;0.70;;;4.10;1.00;;;;;;5058266;28;20029;-82
2022/01/20 13:11:51;;;;;;;3.58;0.40;;;4.00;1.00;;;;;;5056915;28;20025;-82
2022/01/20 13:14:18;;;;;;;4.40;0.60;;;3.90;1.00;;;;;;5053141;28;20060;-83
2022/01/20 13:16:55;;;;;;;4.32;0.82;;;3.80;1.00;;;;;;5053035;28;20025;-82
2022/01/20 13:19:35;;;;;;;4.80;1.05;;;3.90;1.00;;;;;;5072261;28;20048;-82
2022/01/20 13:22:01;;;;;;;4.75;0.25;;;4.20;1.00;;;;;;5034372;28;20086;-82
2022/01/20 13:24:29;;;;;;;2.03;0.38;;;4.40;1.00;;;;;;5072335;28;20504;-81
2022/01/20 13:26:56;;;;;;;6.82;1.42;;;4.40;1.00;;;;;;5053771;28;20028;-80
2022/01/20 13:29:23;;;;;;;3.63;0.63;;;4.40;1.00;;;;;;5070538;28;20027;-79
2022/01/20 13:31:50;;;;;;;5.00;1.20;;;4.30;1.00;;;;;;5054925;28;20029;-79
2022/01/20 13:34:19;;;;;;;15.52;3.03;;;4.30;1.00;;;;;;5050913;28;20031;-80
2022/01/20 13:36:50;;;;;;;12.68;2.00;;;4.50;1.00;;;;;;5047868;28;20542;-80
2022/01/20 13:39:36;;;;;;;10.13;1.33;;;4.50;1.00;;;;;;5041963;28;20397;-80
2022/01/20 13:42:03;;;;;;;8.02;1.70;;;4.30;1.00;;;;;;5043550;28;20053;-80
2022/01/20 13:47:12;;;;;;;2.38;0.82;;;4.30;1.00;;;;;;5047065;28;20098;-79
2022/01/20 13:49:50;;;;;;;8.93;1.45;;;4.30;1.00;;;;;;5046534;28;20461;-80
2022/01/20 13:52:19;;;;;;;3.22;0.57;;;4.20;1.00;;;;;;5047095;28;20025;-80
2022/01/20 13:54:47;;;;;;;9.35;1.60;;;4.00;1.00;;;;;;5043643;28;20469;-80
2022/01/20 13:57:12;;;;;;;7.55;1.27;;;4.10;1.00;;;;;;5041824;28;20061;-80
2022/01/20 13:59:56;;;;;;;2.08;0.75;;;4.20;1.00;;;;;;5044372;28;20098;-80
2022/01/20 14:02:23;;;;;;;6.03;1.40;;;4.20;1.00;;;;;;5033986;28;20018;-80
2022/01/20 14:04:50;;;;;;;10.52;2.03;;;4.30;1.00;;;;;;5053830;28;20069;-80
2022/01/20 14:07:16;;;;;;;6.47;1.48;;;4.60;1.00;;;;;;5068311;28;20025;-80
2022/01/20 14:09:42;;;;;;;11.18;2.40;;;4.90;1.00;;;;;;5070597;28;20471;-80
2022/01/20 14:12:08;;;;;;;7.75;1.92;;;5.20;1.00;;;;;;5071924;28;20120;-80
2022/01/20 14:14:34;;;;;;;6.18;1.20;;;5.40;1.00;;;;;;5050127;28;20527;-80
2022/01/20 14:17:06;;;;;;;8.65;1.77;;;5.40;1.00;;;;;;5036640;28;20029;-80
2022/01/20 14:19:36;;;;;;;8.43;1.20;;;5.30;1.00;;;;;;5035335;28;20033;-80
2022/01/20 14:22:03;;;;;;;7.90;0.90;;;4.80;1.00;;;;;;5041398;28;20050;-80
2022/01/20 14:24:29;;;;;;;5.90;1.10;;;4.60;1.00;;;;;;5046156;28;20524;-81
2022/01/20 14:27:01;;;;;;;9.68;1.83;;;4.70;1.00;;;;;;5047727;28;20033;-80
2022/01/20 14:29:26;;;;;;;5.88;1.45;;;4.90;1.00;;;;;;5046606;28;20029;-80
2022/01/20 14:31:53;;;;;;;11.00;2.15;;;5.00;1.00;;;;;;5051891;28;20040;-83
2022/01/20 14:34:18;;;;;;;10.25;1.83;;;4.90;1.00;;;;;;5051532;28;20021;-83
2022/01/20 14:36:44;;;;;;;8.50;1.92;;;4.60;1.00;;;;;;5036826;28;20071;-83